WetterOnline ( https://www.wetteronline.de )

Wetter aktuell Bublava

Aktuelles Wetter: Plauen (389m)

6-stündlich | Neueste Meldungen
Ortszeit Temperatur Wetter
So, 14.04. 14:00 20.5° C wolkig
So, 14.04. 8:00 14.1° C bewölkt
So, 14.04. 2:00 14.3° C wolkig
Sa, 13.04. 20:00 18.1° C wolkig
Sa, 13.04. 14:00 20.7° C leicht bewölkt
Sa, 13.04. 8:00 10.4° C bewölkt
Sa, 13.04. 2:00 7.7° C wolkig
Fr, 12.04. 20:00 17.0° C bewölkt
Ortszeit Temperatur Wetter
So, 14.04. 16:30 18.5° C bewölkt
So, 14.04. 16:20 18.5° C bewölkt
So, 14.04. 16:10 18.5° C bewölkt
So, 14.04. 16:00 18.8° C bewölkt
So, 14.04. 15:50 18.8° C bewölkt
So, 14.04. 15:40 18.9° C bedeckt
So, 14.04. 15:30 19.1° C bewölkt
So, 14.04. 15:00 19.4° C bewölkt
So, 14.04. 14:30 20.5° C bewölkt
So, 14.04. 14:00 20.5° C wolkig
So, 14.04. 13:30 20.2° C wolkig
Ortszeit Relative Feuchte Sichtweite
So, 14.04. 14:00 43% 45 km
So, 14.04. 8:00 73% 55 km
So, 14.04. 2:00 68% 55 km
Sa, 13.04. 20:00 60% 45 km
Sa, 13.04. 14:00 46% 65 km
Sa, 13.04. 8:00 83% 45 km
Sa, 13.04. 2:00 88% 40 km
Fr, 12.04. 20:00 50% 65 km
Ortszeit Relative Feuchte Sichtweite
So, 14.04. 16:30 51% >70 km
So, 14.04. 16:20 51% -
So, 14.04. 16:10 52% -
So, 14.04. 16:00 54% 55 km
So, 14.04. 15:50 54% -
So, 14.04. 15:40 56% -
So, 14.04. 15:30 50% 65 km
So, 14.04. 15:00 53% 60 km
So, 14.04. 14:30 44% 55 km
So, 14.04. 14:00 43% 45 km
So, 14.04. 13:30 44% >70 km
Ortszeit Niederschlagsmenge Niederschlagsart
So, 14.04. 14:00 0.0 l/m2 in 6 Std. -
So, 14.04. 8:00 0.0 l/m2 in 12 Std. -
So, 14.04. 2:00 0.0 l/m2 in 6 Std. -
Sa, 13.04. 20:00 0.0 l/m2 in 12 Std. -
Sa, 13.04. 14:00 0.0 l/m2 in 6 Std. -
Sa, 13.04. 8:00 0.0 l/m2 in 12 Std. -
Sa, 13.04. 2:00 0.0 l/m2 in 6 Std. -
Fr, 12.04. 20:00 0.0 l/m2 in 12 Std. -
Ortszeit Niederschlagsmenge Niederschlagsart
So, 14.04. 16:30 0.0 l/m2 in 30 Min -
So, 14.04. 16:20 keine Meldung -
So, 14.04. 16:10 keine Meldung -
So, 14.04. 16:00 0.0 l/m2 in 1 Std. -
So, 14.04. 15:50 keine Meldung -
So, 14.04. 15:40 keine Meldung -
So, 14.04. 15:30 0.0 l/m2 in 30 Min -
So, 14.04. 15:00 0.0 l/m2 in 1 Std. -
So, 14.04. 14:30 0.0 l/m2 in 30 Min -
So, 14.04. 14:00 0.0 l/m2 in 1 Std. -
So, 14.04. 13:30 0.0 l/m2 in 30 Min -
Ortszeit Stärke Spitze Richtung
km/h Bft. km/h Grad Sektor
So, 14.04. 14:00 18 3 32 230° SW
So, 14.04. 8:00 9 2 20 200° S
So, 14.04. 2:00 13 3 24 190° S
Sa, 13.04. 20:00 11 2 32 200° S
Sa, 13.04. 14:00 13 3 33 220° SW
Sa, 13.04. 8:00 7 2 11 190° S
Sa, 13.04. 2:00 7 2 14 200° S
Fr, 12.04. 20:00 7 2 29 210° SW
Ortszeit Stärke Spitze Richtung
km/h Bft. km/h Grad Sektor
So, 14.04. 16:30 14 3 29 300° NW
So, 14.04. 16:20 14 3 - 300° NW
So, 14.04. 16:10 14 3 - 310° NW
So, 14.04. 16:00 14 3 25 320° NW
So, 14.04. 15:50 14 3 - 320° NW
So, 14.04. 15:40 15 3 - 330° NW
So, 14.04. 15:30 18 3 25 300° NW
So, 14.04. 15:00 11 2 36 320° NW
So, 14.04. 14:30 14 3 36 250° W
So, 14.04. 14:00 18 3 32 230° SW
So, 14.04. 13:30 14 3 32 240° SW
Ortszeit Untergrenze Bedeckung Gattung
total tief tief mittel hoch
So, 14.04. 14:00 1500 m 8/8 3/8 - - -
So, 14.04. 8:00 6900 m 8/8 4/8 - - -
So, 14.04. 2:00 8700 m 8/8 0/8 - - -
Sa, 13.04. 20:00 8400 m 8/8 0/8 - - -
Sa, 13.04. 14:00 1290 m 3/8 2/8 - - -
Sa, 13.04. 8:00 6300 m 8/8 4/8 - - -
Sa, 13.04. 2:00 9000 m 8/8 0/8 - - -
Fr, 12.04. 20:00 6900 m 8/8 6/8 - - -
Ortszeit Bedeckungsgrad in Achtel und Wolkenuntergrenze
So, 14.04. 16:30 4(1500m) 7(2100m) 7(2400m)
So, 14.04. 16:20 4(1500m) 7(2100m) 7(2400m)
So, 14.04. 16:10 7
So, 14.04. 16:00 7(1800m) 7(2400m) 8(9000m)
So, 14.04. 15:50 7(1800m) 7(2400m) 8(9000m)
So, 14.04. 15:40 8
So, 14.04. 15:30 6(1800m) 7(2100m) 7(7500m)
So, 14.04. 15:00 7(1500m) 7(1800m)
So, 14.04. 14:30 7(1500m) 7(2100m) 7(9000m)
So, 14.04. 14:00 3(1500m) 8(9000m) 8(10500m)
So, 14.04. 13:30 2(1500m) 8(7200m) 8(8400m)
Ortszeit Luftdruck NN (hPa) Tendenz (hPa in 3 Std.)
So, 14.04. 14:00 1018 - 1,0
So, 14.04. 8:00 1020 + 0,4
So, 14.04. 2:00 1020 - 0,9
Sa, 13.04. 20:00 1022 - 1,6
Sa, 13.04. 14:00 1026 - 1,5
Sa, 13.04. 8:00 1030 0,0
Sa, 13.04. 2:00 1030 - 0,2
Fr, 12.04. 20:00 1028 - 0,7
Ortszeit Luftdruck NN (hPa) Tendenz (hPa in 3 Std.)
So, 14.04. 16:30 1018 - 0,9
So, 14.04. 16:20 1018 keine Meldung
So, 14.04. 16:10 1018 keine Meldung
So, 14.04. 16:00 1018 - 0,8
So, 14.04. 15:50 1018 keine Meldung
So, 14.04. 15:40 1018 keine Meldung
So, 14.04. 15:30 1018 - 0,9
So, 14.04. 15:00 1018 - 1,0
So, 14.04. 14:30 1018 - 1,1
So, 14.04. 14:00 1018 - 1,0
So, 14.04. 13:30 1018 - 0,7
Ortszeit Schneehöhe (cm)
So, 14.04. 14:00 0
So, 14.04. 8:00 0
So, 14.04. 2:00 0
Sa, 13.04. 20:00 0
Sa, 13.04. 14:00 0
Sa, 13.04. 8:00 0
Sa, 13.04. 2:00 0
Fr, 12.04. 20:00 0
Ortszeit Schneehöhe (cm)
So, 14.04. 16:30 0
So, 14.04. 16:20 0
So, 14.04. 16:10 -
So, 14.04. 16:00 0
So, 14.04. 15:50 0
So, 14.04. 15:40 -
So, 14.04. 15:30 0
So, 14.04. 15:00 0
So, 14.04. 14:30 0
So, 14.04. 14:00 0
So, 14.04. 13:30 0
Link zu dieser Seite / Seite empfehlen

Das Wetter in ...